sensor_id;sensor_type;location;lat;lon;timestamp;pressure;altitude;pressure_sealevel;temperature;humidity
75585;BME280;64162;53.508;10.476;2024-02-23T00:01:07;97534.06;;;13.57;50.78
75585;BME280;64162;53.508;10.476;2024-02-23T00:03:34;97535.03;;;14.08;50.47
75585;BME280;64162;53.508;10.476;2024-02-23T00:06:06;97545.03;;;13.69;50.59
75585;BME280;64162;53.508;10.476;2024-02-23T00:08:33;97546.13;;;13.78;50.01
75585;BME280;64162;53.508;10.476;2024-02-23T00:11:00;97549.31;;;14.05;50.64
75585;BME280;64162;53.508;10.476;2024-02-23T00:13:33;97550.47;;;13.57;50.48
75585;BME280;64162;53.508;10.476;2024-02-23T00:15:59;97562.53;;;13.31;50.94
75585;BME280;64162;53.508;10.476;2024-02-23T00:18:26;97580.81;;;13.47;50.90
75585;BME280;64162;53.508;10.476;2024-02-23T00:21:00;97587.00;;;13.41;49.69
75585;BME280;64162;53.508;10.476;2024-02-23T00:23:27;97591.44;;;13.08;49.53
75585;BME280;64162;53.508;10.476;2024-02-23T00:25:55;97608.25;;;13.27;48.20
75585;BME280;64162;53.508;10.476;2024-02-23T00:28:22;97595.91;;;13.13;49.74
75585;BME280;64162;53.508;10.476;2024-02-23T00:30:48;97603.28;;;12.94;48.03
75585;BME280;64162;53.508;10.476;2024-02-23T00:33:21;97615.88;;;13.07;48.68
75585;BME280;64162;53.508;10.476;2024-02-23T00:35:50;97594.91;;;12.82;48.02
75585;BME280;64162;53.508;10.476;2024-02-23T00:38:19;97590.06;;;12.96;48.55
75585;BME280;64162;53.508;10.476;2024-02-23T00:40:47;97600.28;;;12.48;48.93
75585;BME280;64162;53.508;10.476;2024-02-23T00:43:21;97610.47;;;12.82;49.38
75585;BME280;64162;53.508;10.476;2024-02-23T00:45:49;97618.16;;;13.36;48.51
75585;BME280;64162;53.508;10.476;2024-02-23T00:48:15;97607.50;;;13.32;48.16
75585;BME280;64162;53.508;10.476;2024-02-23T00:50:42;97612.31;;;13.18;48.96
75585;BME280;64162;53.508;10.476;2024-02-23T00:53:14;97617.53;;;12.86;49.70
75585;BME280;64162;53.508;10.476;2024-02-23T00:55:41;97604.59;;;12.92;49.52
75585;BME280;64162;53.508;10.476;2024-02-23T00:58:10;97605.72;;;13.06;49.06
75585;BME280;64162;53.508;10.476;2024-02-23T01:00:39;97618.00;;;12.83;49.58
75585;BME280;64162;53.508;10.476;2024-02-23T01:03:05;97626.34;;;12.59;50.00
75585;BME280;64162;53.508;10.476;2024-02-23T01:05:33;97629.44;;;12.82;50.51
75585;BME280;64162;53.508;10.476;2024-02-23T01:08:00;97660.41;;;12.94;50.02
75585;BME280;64162;53.508;10.476;2024-02-23T01:10:32;97654.22;;;12.68;50.39
75585;BME280;64162;53.508;10.476;2024-02-23T01:12:58;97661.50;;;12.98;50.27
75585;BME280;64162;53.508;10.476;2024-02-23T01:15:25;97674.78;;;13.02;50.19
75585;BME280;64162;53.508;10.476;2024-02-23T01:17:52;97689.72;;;12.63;51.11
75585;BME280;64162;53.508;10.476;2024-02-23T01:20:19;97678.50;;;12.84;50.49
75585;BME280;64162;53.508;10.476;2024-02-23T01:22:45;97706.88;;;12.64;52.99
75585;BME280;64162;53.508;10.476;2024-02-23T01:25:13;97689.25;;;12.66;52.95
75585;BME280;64162;53.508;10.476;2024-02-23T01:27:42;97718.75;;;12.81;51.90
75585;BME280;64162;53.508;10.476;2024-02-23T01:30:11;97737.38;;;13.00;51.83
75585;BME280;64162;53.508;10.476;2024-02-23T01:32:37;97763.84;;;12.54;56.27
75585;BME280;64162;53.508;10.476;2024-02-23T01:35:08;97773.22;;;11.16;63.58
75585;BME280;64162;53.508;10.476;2024-02-23T01:37:38;97799.47;;;10.80;65.05
75585;BME280;64162;53.508;10.476;2024-02-23T01:40:07;97804.94;;;10.95;64.42
75585;BME280;64162;53.508;10.476;2024-02-23T01:42:34;97814.13;;;11.02;63.60
75585;BME280;64162;53.508;10.476;2024-02-23T01:45:03;97830.81;;;11.23;62.62
75585;BME280;64162;53.508;10.476;2024-02-23T01:47:30;97825.97;;;10.87;63.67
75585;BME280;64162;53.508;10.476;2024-02-23T01:49:58;97834.41;;;10.94;63.47
75585;BME280;64162;53.508;10.476;2024-02-23T01:52:32;97846.59;;;10.82;64.31
75585;BME280;64162;53.508;10.476;2024-02-23T01:55:01;97841.34;;;11.16;62.93
75585;BME280;64162;53.508;10.476;2024-02-23T01:57:28;97862.22;;;11.27;61.65
75585;BME280;64162;53.508;10.476;2024-02-23T01:59:56;97884.56;;;10.64;63.19
75585;BME280;64162;53.508;10.476;2024-02-23T02:02:23;97876.56;;;10.66;62.35
75585;BME280;64162;53.508;10.476;2024-02-23T02:04:50;97899.19;;;10.70;63.12
75585;BME280;64162;53.508;10.476;2024-02-23T02:07:16;97908.81;;;10.87;62.06
75585;BME280;64162;53.508;10.476;2024-02-23T02:09:44;97911.75;;;10.32;63.05
75585;BME280;64162;53.508;10.476;2024-02-23T02:12:11;97919.25;;;11.15;61.59
75585;BME280;64162;53.508;10.476;2024-02-23T02:14:38;97932.00;;;10.82;62.11
75585;BME280;64162;53.508;10.476;2024-02-23T02:17:04;97923.44;;;10.23;63.19
75585;BME280;64162;53.508;10.476;2024-02-23T02:19:32;97930.66;;;10.21;63.16
75585;BME280;64162;53.508;10.476;2024-02-23T02:21:59;97938.91;;;10.76;61.46
75585;BME280;64162;53.508;10.476;2024-02-23T02:24:28;97942.72;;;10.73;61.74
75585;BME280;64162;53.508;10.476;2024-02-23T02:26:54;97955.16;;;10.18;62.31
75585;BME280;64162;53.508;10.476;2024-02-23T02:29:21;97966.78;;;10.39;62.48
75585;BME280;64162;53.508;10.476;2024-02-23T02:31:48;97972.53;;;10.64;62.21
75585;BME280;64162;53.508;10.476;2024-02-23T02:34:15;97970.50;;;10.43;61.79
75585;BME280;64162;53.508;10.476;2024-02-23T02:36:43;97995.38;;;10.56;61.00
75585;BME280;64162;53.508;10.476;2024-02-23T02:39:10;97996.19;;;10.80;60.47
75585;BME280;64162;53.508;10.476;2024-02-23T02:41:39;97996.06;;;11.09;59.96
75585;BME280;64162;53.508;10.476;2024-02-23T02:44:07;97998.22;;;11.01;59.96
75585;BME280;64162;53.508;10.476;2024-02-23T02:46:35;98012.34;;;10.63;60.06
75585;BME280;64162;53.508;10.476;2024-02-23T02:49:03;98031.47;;;10.62;60.83
75585;BME280;64162;53.508;10.476;2024-02-23T02:51:30;98037.66;;;10.61;60.43
75585;BME280;64162;53.508;10.476;2024-02-23T02:53:57;98067.72;;;10.62;61.58
75585;BME280;64162;53.508;10.476;2024-02-23T02:56:24;98077.00;;;10.93;61.43
75585;BME280;64162;53.508;10.476;2024-02-23T02:58:51;98090.00;;;10.63;61.79
75585;BME280;64162;53.508;10.476;2024-02-23T03:01:19;98082.66;;;10.19;62.34
75585;BME280;64162;53.508;10.476;2024-02-23T03:03:46;98106.97;;;10.11;62.11
75585;BME280;64162;53.508;10.476;2024-02-23T03:06:13;98113.91;;;10.47;61.87
75585;BME280;64162;53.508;10.476;2024-02-23T03:08:42;98109.44;;;10.24;62.01
75585;BME280;64162;53.508;10.476;2024-02-23T03:11:09;98111.59;;;9.91;63.67
75585;BME280;64162;53.508;10.476;2024-02-23T03:13:36;98136.75;;;10.20;62.78
75585;BME280;64162;53.508;10.476;2024-02-23T03:16:03;98135.44;;;10.29;62.96
75585;BME280;64162;53.508;10.476;2024-02-23T03:18:30;98152.00;;;9.67;63.50
75585;BME280;64162;53.508;10.476;2024-02-23T03:20:57;98144.59;;;10.44;61.64
75585;BME280;64162;53.508;10.476;2024-02-23T03:23:26;98161.06;;;9.95;62.78
75585;BME280;64162;53.508;10.476;2024-02-23T03:25:53;98164.97;;;10.52;62.66
75585;BME280;64162;53.508;10.476;2024-02-23T03:28:23;98173.75;;;9.96;63.43
75585;BME280;64162;53.508;10.476;2024-02-23T03:30:52;98179.47;;;10.23;63.02
75585;BME280;64162;53.508;10.476;2024-02-23T03:33:21;98178.22;;;9.89;63.55
75585;BME280;64162;53.508;10.476;2024-02-23T03:35:49;98197.91;;;9.90;62.55
75585;BME280;64162;53.508;10.476;2024-02-23T03:38:16;98201.03;;;10.17;62.74
75585;BME280;64162;53.508;10.476;2024-02-23T03:40:43;98201.50;;;9.89;63.21
75585;BME280;64162;53.508;10.476;2024-02-23T03:43:10;98202.97;;;9.35;63.86
75585;BME280;64162;53.508;10.476;2024-02-23T03:45:39;98205.34;;;9.80;63.51
75585;BME280;64162;53.508;10.476;2024-02-23T03:48:06;98231.47;;;9.47;64.24
75585;BME280;64162;53.508;10.476;2024-02-23T03:50:32;98219.69;;;9.51;63.73
75585;BME280;64162;53.508;10.476;2024-02-23T03:52:59;98238.47;;;9.89;63.19
75585;BME280;64162;53.508;10.476;2024-02-23T03:55:26;98241.31;;;9.81;63.72
75585;BME280;64162;53.508;10.476;2024-02-23T03:57:52;98249.03;;;10.31;61.80
75585;BME280;64162;53.508;10.476;2024-02-23T04:00:19;98255.81;;;9.58;63.32
75585;BME280;64162;53.508;10.476;2024-02-23T04:02:47;98244.94;;;9.24;64.29
75585;BME280;64162;53.508;10.476;2024-02-23T04:05:13;98264.97;;;9.60;62.73
75585;BME280;64162;53.508;10.476;2024-02-23T04:07:43;98266.84;;;9.71;63.57
75585;BME280;64162;53.508;10.476;2024-02-23T04:10:10;98272.91;;;9.83;62.35
75585;BME280;64162;53.508;10.476;2024-02-23T04:12:36;98275.47;;;9.65;62.04
75585;BME280;64162;53.508;10.476;2024-02-23T04:15:06;98280.19;;;9.05;63.45
75585;BME280;64162;53.508;10.476;2024-02-23T04:17:36;98279.19;;;9.07;63.34
75585;BME280;64162;53.508;10.476;2024-02-23T04:20:06;98296.53;;;9.62;62.38
75585;BME280;64162;53.508;10.476;2024-02-23T04:22:33;98297.88;;;9.09;62.50
75585;BME280;64162;53.508;10.476;2024-02-23T04:25:00;98298.94;;;9.26;62.00
75585;BME280;64162;53.508;10.476;2024-02-23T04:27:29;98288.66;;;9.51;61.03
75585;BME280;64162;53.508;10.476;2024-02-23T04:29:56;98305.50;;;9.28;61.74
75585;BME280;64162;53.508;10.476;2024-02-23T04:32:25;98315.03;;;9.28;62.20
75585;BME280;64162;53.508;10.476;2024-02-23T04:34:52;98313.06;;;9.23;62.24
75585;BME280;64162;53.508;10.476;2024-02-23T04:37:19;98316.00;;;9.65;61.02
75585;BME280;64162;53.508;10.476;2024-02-23T04:39:53;98333.28;;;9.33;61.70
75585;BME280;64162;53.508;10.476;2024-02-23T04:42:19;98316.97;;;9.39;61.05
75585;BME280;64162;53.508;10.476;2024-02-23T04:44:46;98326.41;;;8.69;61.51
75585;BME280;64162;53.508;10.476;2024-02-23T04:47:15;98329.63;;;9.47;60.61
75585;BME280;64162;53.508;10.476;2024-02-23T04:49:42;98340.19;;;9.45;60.14
75585;BME280;64162;53.508;10.476;2024-02-23T04:52:08;98334.94;;;9.52;59.93
75585;BME280;64162;53.508;10.476;2024-02-23T04:54:35;98343.94;;;10.06;58.74
75585;BME280;64162;53.508;10.476;2024-02-23T04:57:02;98349.03;;;9.25;60.67
75585;BME280;64162;53.508;10.476;2024-02-23T04:59:31;98355.56;;;9.65;59.32
75585;BME280;64162;53.508;10.476;2024-02-23T05:01:58;98359.63;;;9.48;61.16
75585;BME280;64162;53.508;10.476;2024-02-23T05:04:25;98362.00;;;9.50;60.75
75585;BME280;64162;53.508;10.476;2024-02-23T05:06:53;98358.94;;;9.28;60.24
75585;BME280;64162;53.508;10.476;2024-02-23T05:09:21;98361.94;;;9.25;60.66
75585;BME280;64162;53.508;10.476;2024-02-23T05:11:48;98366.06;;;9.32;60.12
75585;BME280;64162;53.508;10.476;2024-02-23T05:14:15;98371.91;;;9.15;60.53
75585;BME280;64162;53.508;10.476;2024-02-23T05:16:44;98375.75;;;9.75;59.35
75585;BME280;64162;53.508;10.476;2024-02-23T05:19:14;98379.84;;;9.20;60.67
75585;BME280;64162;53.508;10.476;2024-02-23T05:21:41;98383.63;;;9.55;60.01
75585;BME280;64162;53.508;10.476;2024-02-23T05:24:08;98396.69;;;9.22;60.71
75585;BME280;64162;53.508;10.476;2024-02-23T05:26:37;98400.47;;;9.64;59.69
75585;BME280;64162;53.508;10.476;2024-02-23T05:29:03;98401.03;;;9.66;59.16
75585;BME280;64162;53.508;10.476;2024-02-23T05:31:49;98400.13;;;9.54;59.48
75585;BME280;64162;53.508;10.476;2024-02-23T05:34:16;98402.25;;;9.70;59.33
75585;BME280;64162;53.508;10.476;2024-02-23T05:36:43;98407.56;;;9.75;58.47
75585;BME280;64162;53.508;10.476;2024-02-23T05:39:09;98401.16;;;8.95;59.26
75585;BME280;64162;53.508;10.476;2024-02-23T05:41:36;98409.06;;;9.14;59.35
75585;BME280;64162;53.508;10.476;2024-02-23T05:44:03;98415.16;;;9.26;59.03
75585;BME280;64162;53.508;10.476;2024-02-23T05:46:33;98435.59;;;9.34;59.47
75585;BME280;64162;53.508;10.476;2024-02-23T05:48:59;98435.25;;;9.11;59.46
75585;BME280;64162;53.508;10.476;2024-02-23T05:51:29;98448.72;;;9.26;58.44
75585;BME280;64162;53.508;10.476;2024-02-23T05:53:57;98446.34;;;9.24;58.77
75585;BME280;64162;53.508;10.476;2024-02-23T05:56:24;98466.41;;;9.29;58.29
75585;BME280;64162;53.508;10.476;2024-02-23T05:58:51;98460.75;;;8.74;59.88
75585;BME280;64162;53.508;10.476;2024-02-23T06:01:19;98457.28;;;9.71;57.93
75585;BME280;64162;53.508;10.476;2024-02-23T06:03:48;98468.19;;;10.11;56.37
75585;BME280;64162;53.508;10.476;2024-02-23T06:06:14;98471.03;;;9.65;57.98
75585;BME280;64162;53.508;10.476;2024-02-23T06:08:45;98471.56;;;9.29;58.21
75585;BME280;64162;53.508;10.476;2024-02-23T06:11:13;98483.13;;;10.09;55.59
75585;BME280;64162;53.508;10.476;2024-02-23T06:13:39;98498.66;;;8.87;58.26
75585;BME280;64162;53.508;10.476;2024-02-23T06:16:12;98513.63;;;9.36;57.37
75585;BME280;64162;53.508;10.476;2024-02-23T06:18:41;98503.47;;;9.47;57.94
75585;BME280;64162;53.508;10.476;2024-02-23T06:21:17;98499.84;;;9.68;57.54
75585;BME280;64162;53.508;10.476;2024-02-23T06:23:47;98507.97;;;8.94;58.43
75585;BME280;64162;53.508;10.476;2024-02-23T06:26:14;98519.34;;;9.51;57.89
75585;BME280;64162;53.508;10.476;2024-02-23T06:28:40;98524.00;;;9.87;56.67
75585;BME280;64162;53.508;10.476;2024-02-23T06:31:17;98529.06;;;9.62;57.67
75585;BME280;64162;53.508;10.476;2024-02-23T06:33:44;98519.09;;;9.08;58.83
75585;BME280;64162;53.508;10.476;2024-02-23T06:36:16;98533.53;;;9.86;57.62
75585;BME280;64162;53.508;10.476;2024-02-23T06:38:43;98536.88;;;9.36;58.67
75585;BME280;64162;53.508;10.476;2024-02-23T06:41:11;98552.31;;;9.62;58.55
75585;BME280;64162;53.508;10.476;2024-02-23T06:43:37;98538.84;;;9.60;58.38
75585;BME280;64162;53.508;10.476;2024-02-23T06:46:09;98545.81;;;9.98;57.79
75585;BME280;64162;53.508;10.476;2024-02-23T06:48:36;98562.66;;;9.56;58.59
75585;BME280;64162;53.508;10.476;2024-02-23T06:51:04;98567.66;;;9.51;57.42
75585;BME280;64162;53.508;10.476;2024-02-23T06:53:31;98559.09;;;9.57;58.37
75585;BME280;64162;53.508;10.476;2024-02-23T06:55:58;98569.84;;;9.60;57.80
75585;BME280;64162;53.508;10.476;2024-02-23T06:58:26;98566.75;;;9.89;57.69
75585;BME280;64162;53.508;10.476;2024-02-23T07:00:56;98590.13;;;9.37;58.54
75585;BME280;64162;53.508;10.476;2024-02-23T07:03:23;98597.66;;;9.58;58.41
75585;BME280;64162;53.508;10.476;2024-02-23T07:05:53;98592.34;;;9.98;57.11
75585;BME280;64162;53.508;10.476;2024-02-23T07:08:19;98601.94;;;9.90;57.19
75585;BME280;64162;53.508;10.476;2024-02-23T07:10:46;98595.00;;;9.84;58.44
75585;BME280;64162;53.508;10.476;2024-02-23T07:13:20;98598.06;;;10.13;57.15
75585;BME280;64162;53.508;10.476;2024-02-23T07:15:46;98607.19;;;9.51;58.94
75585;BME280;64162;53.508;10.476;2024-02-23T07:18:13;98615.63;;;10.04;57.47
75585;BME280;64162;53.508;10.476;2024-02-23T07:20:40;98625.78;;;9.86;57.63
75585;BME280;64162;53.508;10.476;2024-02-23T07:23:06;98622.16;;;10.07;57.11
75585;BME280;64162;53.508;10.476;2024-02-23T07:25:34;98626.69;;;9.54;58.02
75585;BME280;64162;53.508;10.476;2024-02-23T07:28:00;98628.31;;;10.19;56.67
75585;BME280;64162;53.508;10.476;2024-02-23T07:30:30;98635.19;;;9.67;57.16
75585;BME280;64162;53.508;10.476;2024-02-23T07:32:57;98634.81;;;9.70;57.29
75585;BME280;64162;53.508;10.476;2024-02-23T07:35:23;98641.41;;;9.33;58.47
75585;BME280;64162;53.508;10.476;2024-02-23T07:37:50;98648.06;;;10.83;54.93
75585;BME280;64162;53.508;10.476;2024-02-23T07:40:17;98653.97;;;10.20;55.87
75585;BME280;64162;53.508;10.476;2024-02-23T07:42:44;98657.13;;;10.98;53.72
75585;BME280;64162;53.508;10.476;2024-02-23T07:45:11;98656.78;;;11.44;53.41
75585;BME280;64162;53.508;10.476;2024-02-23T07:47:38;98660.06;;;11.33;53.81
75585;BME280;64162;53.508;10.476;2024-02-23T07:50:05;98673.41;;;10.74;54.61
75585;BME280;64162;53.508;10.476;2024-02-23T07:52:32;98671.56;;;10.43;54.96
75585;BME280;64162;53.508;10.476;2024-02-23T07:55:00;98662.81;;;10.44;54.71
75585;BME280;64162;53.508;10.476;2024-02-23T07:57:29;98676.47;;;10.96;53.34
75585;BME280;64162;53.508;10.476;2024-02-23T08:00:00;98678.66;;;10.99;53.67
75585;BME280;64162;53.508;10.476;2024-02-23T08:02:37;98677.44;;;10.70;54.04
75585;BME280;64162;53.508;10.476;2024-02-23T08:05:06;98678.00;;;10.27;54.79
75585;BME280;64162;53.508;10.476;2024-02-23T08:07:33;98665.16;;;9.95;55.02
75585;BME280;64162;53.508;10.476;2024-02-23T08:10:02;98681.06;;;10.94;53.45
75585;BME280;64162;53.508;10.476;2024-02-23T08:12:31;98675.91;;;11.18;53.20
75585;BME280;64162;53.508;10.476;2024-02-23T08:14:58;98669.03;;;11.06;53.46
75585;BME280;64162;53.508;10.476;2024-02-23T08:17:25;98675.84;;;10.69;53.58
75585;BME280;64162;53.508;10.476;2024-02-23T08:19:55;98690.13;;;10.40;54.00
75585;BME280;64162;53.508;10.476;2024-02-23T08:22:22;98690.75;;;10.67;53.82
75585;BME280;64162;53.508;10.476;2024-02-23T08:24:49;98706.09;;;10.24;53.94
75585;BME280;64162;53.508;10.476;2024-02-23T08:27:16;98686.88;;;10.89;53.29
75585;BME280;64162;53.508;10.476;2024-02-23T08:29:43;98695.03;;;10.48;53.40
75585;BME280;64162;53.508;10.476;2024-02-23T08:32:10;98693.44;;;10.47;53.07
75585;BME280;64162;53.508;10.476;2024-02-23T08:34:36;98692.00;;;10.58;53.19
75585;BME280;64162;53.508;10.476;2024-02-23T08:37:03;98688.22;;;10.92;52.38
75585;BME280;64162;53.508;10.476;2024-02-23T08:39:32;98688.59;;;10.70;52.50
75585;BME280;64162;53.508;10.476;2024-02-23T08:42:00;98698.09;;;10.76;52.25
75585;BME280;64162;53.508;10.476;2024-02-23T08:44:27;98700.03;;;10.43;52.75
75585;BME280;64162;53.508;10.476;2024-02-23T08:46:53;98699.22;;;10.49;52.05
75585;BME280;64162;53.508;10.476;2024-02-23T08:49:22;98712.13;;;10.94;51.89
75585;BME280;64162;53.508;10.476;2024-02-23T08:51:51;98712.22;;;10.81;51.70
75585;BME280;64162;53.508;10.476;2024-02-23T08:54:18;98697.91;;;10.71;51.98
75585;BME280;64162;53.508;10.476;2024-02-23T08:56:45;98720.00;;;10.81;52.17
75585;BME280;64162;53.508;10.476;2024-02-23T08:59:14;98714.94;;;10.54;52.03
75585;BME280;64162;53.508;10.476;2024-02-23T09:01:41;98736.44;;;10.93;51.50
75585;BME280;64162;53.508;10.476;2024-02-23T09:04:08;98731.25;;;10.93;51.45
75585;BME280;64162;53.508;10.476;2024-02-23T09:06:37;98724.69;;;11.53;50.15
75585;BME280;64162;53.508;10.476;2024-02-23T09:09:04;98750.56;;;11.28;50.65
75585;BME280;64162;53.508;10.476;2024-02-23T09:11:31;98744.13;;;11.37;51.19
75585;BME280;64162;53.508;10.476;2024-02-23T09:14:01;98759.31;;;11.34;50.56
75585;BME280;64162;53.508;10.476;2024-02-23T09:20:53;98770.38;;;11.47;50.31
75585;BME280;64162;53.508;10.476;2024-02-23T09:23:20;98775.34;;;11.49;50.68
75585;BME280;64162;53.508;10.476;2024-02-23T09:25:47;98765.47;;;11.64;49.34
75585;BME280;64162;53.508;10.476;2024-02-23T09:28:13;98770.31;;;12.28;48.87
75585;BME280;64162;53.508;10.476;2024-02-23T09:30:40;98780.84;;;11.34;50.86
75585;BME280;64162;53.508;10.476;2024-02-23T09:33:07;98773.13;;;11.84;49.25
75585;BME280;64162;53.508;10.476;2024-02-23T09:35:34;98788.88;;;12.07;48.22
75585;BME280;64162;53.508;10.476;2024-02-23T09:38:01;98788.38;;;11.67;49.08
75585;BME280;64162;53.508;10.476;2024-02-23T09:40:29;98796.81;;;11.31;49.59
75585;BME280;64162;53.508;10.476;2024-02-23T09:42:57;98806.66;;;11.16;49.70
75585;BME280;64162;53.508;10.476;2024-02-23T09:45:27;98803.44;;;12.08;48.27
75585;BME280;64162;53.508;10.476;2024-02-23T09:47:57;98805.53;;;12.18;46.68
75585;BME280;64162;53.508;10.476;2024-02-23T09:50:24;98809.75;;;11.62;48.61
75585;BME280;64162;53.508;10.476;2024-02-23T09:52:51;98819.34;;;11.24;48.86
75585;BME280;64162;53.508;10.476;2024-02-23T09:55:17;98804.59;;;11.87;47.51
75585;BME280;64162;53.508;10.476;2024-02-23T09:57:48;98814.19;;;12.12;48.04
75585;BME280;64162;53.508;10.476;2024-02-23T10:00:17;98820.75;;;11.89;47.57
75585;BME280;64162;53.508;10.476;2024-02-23T10:02:50;98814.56;;;12.15;47.44
75585;BME280;64162;53.508;10.476;2024-02-23T10:05:17;98813.28;;;12.61;47.19
75585;BME280;64162;53.508;10.476;2024-02-23T10:07:44;98825.19;;;11.82;47.23
75585;BME280;64162;53.508;10.476;2024-02-23T10:10:11;98830.13;;;11.90;47.04
75585;BME280;64162;53.508;10.476;2024-02-23T10:12:37;98847.00;;;11.75;48.18
75585;BME280;64162;53.508;10.476;2024-02-23T10:15:05;98850.13;;;12.08;47.36
75585;BME280;64162;53.508;10.476;2024-02-23T10:17:32;98847.75;;;12.50;46.78
75585;BME280;64162;53.508;10.476;2024-02-23T10:20:00;98857.06;;;11.89;47.40
75585;BME280;64162;53.508;10.476;2024-02-23T10:22:31;98853.44;;;11.59;47.63
75585;BME280;64162;53.508;10.476;2024-02-23T10:24:57;98853.81;;;11.31;46.60
75585;BME280;64162;53.508;10.476;2024-02-23T10:27:24;98854.63;;;11.94;45.75
75585;BME280;64162;53.508;10.476;2024-02-23T10:29:51;98850.94;;;12.52;43.66
75585;BME280;64162;53.508;10.476;2024-02-23T10:32:19;98874.31;;;13.06;42.98
75585;BME280;64162;53.508;10.476;2024-02-23T10:34:47;98878.75;;;12.44;43.57
75585;BME280;64162;53.508;10.476;2024-02-23T10:37:16;98868.66;;;12.36;43.20
75585;BME280;64162;53.508;10.476;2024-02-23T10:39:43;98888.03;;;12.34;43.32
75585;BME280;64162;53.508;10.476;2024-02-23T10:42:12;98893.59;;;12.13;43.53
75585;BME280;64162;53.508;10.476;2024-02-23T10:44:40;98897.34;;;11.92;43.88
75585;BME280;64162;53.508;10.476;2024-02-23T10:47:08;98889.53;;;13.03;46.73
75585;BME280;64162;53.508;10.476;2024-02-23T10:49:36;98895.38;;;12.80;43.53
75585;BME280;64162;53.508;10.476;2024-02-23T10:52:03;98889.84;;;12.95;43.59
75585;BME280;64162;53.508;10.476;2024-02-23T10:54:31;98884.72;;;12.70;44.25
75585;BME280;64162;53.508;10.476;2024-02-23T10:56:58;98896.63;;;12.34;44.94
75585;BME280;64162;53.508;10.476;2024-02-23T10:59:25;98911.28;;;12.47;43.80
75585;BME280;64162;53.508;10.476;2024-02-23T11:01:53;98903.78;;;11.83;44.60
75585;BME280;64162;53.508;10.476;2024-02-23T11:04:23;98921.28;;;11.94;45.12
75585;BME280;64162;53.508;10.476;2024-02-23T11:06:52;98915.06;;;12.26;44.52
75585;BME280;64162;53.508;10.476;2024-02-23T11:09:23;98921.53;;;11.86;45.80
75585;BME280;64162;53.508;10.476;2024-02-23T11:11:57;98915.56;;;12.10;45.01
75585;BME280;64162;53.508;10.476;2024-02-23T11:16:59;98911.88;;;12.92;44.27
75585;BME280;64162;53.508;10.476;2024-02-23T11:19:37;98914.09;;;12.45;43.18
75585;BME280;64162;53.508;10.476;2024-02-23T11:22:04;98906.78;;;12.79;43.25
75585;BME280;64162;53.508;10.476;2024-02-23T11:24:33;98911.53;;;12.64;43.29
75585;BME280;64162;53.508;10.476;2024-02-23T11:27:00;98918.00;;;12.55;44.03
75585;BME280;64162;53.508;10.476;2024-02-23T11:29:34;98908.94;;;13.55;42.87
75585;BME280;64162;53.508;10.476;2024-02-23T11:32:03;98916.06;;;13.89;42.90
75585;BME280;64162;53.508;10.476;2024-02-23T11:34:30;98908.13;;;13.24;43.07
75585;BME280;64162;53.508;10.476;2024-02-23T11:36:57;98899.84;;;13.46;42.44
75585;BME280;64162;53.508;10.476;2024-02-23T11:39:26;98897.22;;;12.55;44.32
75585;BME280;64162;53.508;10.476;2024-02-23T11:41:53;98891.88;;;12.93;43.64
75585;BME280;64162;53.508;10.476;2024-02-23T11:44:20;98890.06;;;13.29;42.66
75585;BME280;64162;53.508;10.476;2024-02-23T11:46:47;98912.22;;;13.14;43.04
75585;BME280;64162;53.508;10.476;2024-02-23T11:49:14;98906.84;;;13.45;43.04
75585;BME280;64162;53.508;10.476;2024-02-23T11:51:41;98892.66;;;13.29;42.83
75585;BME280;64162;53.508;10.476;2024-02-23T11:54:08;98898.78;;;13.35;41.81
75585;BME280;64162;53.508;10.476;2024-02-23T11:56:36;98889.72;;;13.26;42.42
75585;BME280;64162;53.508;10.476;2024-02-23T11:59:02;98891.06;;;13.10;42.51
75585;BME280;64162;53.508;10.476;2024-02-23T12:01:30;98891.53;;;13.97;42.43
75585;BME280;64162;53.508;10.476;2024-02-23T12:03:57;98890.66;;;13.13;44.52
75585;BME280;64162;53.508;10.476;2024-02-23T12:06:24;98900.28;;;12.88;43.69
75585;BME280;64162;53.508;10.476;2024-02-23T12:08:54;98882.03;;;12.95;42.41
75585;BME280;64162;53.508;10.476;2024-02-23T12:11:20;98904.97;;;13.22;43.02
75585;BME280;64162;53.508;10.476;2024-02-23T12:13:47;98909.00;;;14.31;41.88
75585;BME280;64162;53.508;10.476;2024-02-23T12:16:14;98900.53;;;13.23;42.51
75585;BME280;64162;53.508;10.476;2024-02-23T12:18:40;98920.19;;;13.67;41.52
75585;BME280;64162;53.508;10.476;2024-02-23T12:21:08;98896.13;;;13.23;41.41
75585;BME280;64162;53.508;10.476;2024-02-23T12:26:07;98907.66;;;12.91;41.98
75585;BME280;64162;53.508;10.476;2024-02-23T12:28:34;98910.69;;;13.06;41.88
75585;BME280;64162;53.508;10.476;2024-02-23T12:31:02;98915.50;;;13.27;42.48
75585;BME280;64162;53.508;10.476;2024-02-23T12:33:39;98919.53;;;14.13;40.32
75585;BME280;64162;53.508;10.476;2024-02-23T12:36:08;98912.28;;;13.44;40.80
75585;BME280;64162;53.508;10.476;2024-02-23T12:38:35;98925.41;;;12.76;41.49
75585;BME280;64162;53.508;10.476;2024-02-23T12:41:02;98939.50;;;12.86;41.61
75585;BME280;64162;53.508;10.476;2024-02-23T12:43:32;98920.53;;;13.41;40.37
75585;BME280;64162;53.508;10.476;2024-02-23T12:45:59;98917.31;;;12.84;41.62
75585;BME280;64162;53.508;10.476;2024-02-23T12:48:25;98924.91;;;12.67;41.41
75585;BME280;64162;53.508;10.476;2024-02-23T12:50:52;98924.31;;;12.65;41.03
75585;BME280;64162;53.508;10.476;2024-02-23T12:53:36;98930.75;;;12.99;41.50
75585;BME280;64162;53.508;10.476;2024-02-23T12:56:08;98918.56;;;12.81;39.63
75585;BME280;64162;53.508;10.476;2024-02-23T12:58:43;98925.94;;;12.60;39.99
75585;BME280;64162;53.508;10.476;2024-02-23T13:01:11;98914.13;;;13.55;39.39
75585;BME280;64162;53.508;10.476;2024-02-23T13:03:39;98916.09;;;12.43;39.77
75585;BME280;64162;53.508;10.476;2024-02-23T13:06:09;98917.03;;;12.74;39.78